Have a Safe July 4th! 

Flight Track Log - Related Links

Times and Time Zones

All times are in EDT time to prevent confusion due to time zone crossing. See the WAV261 flight status page for this flight to view local times or setup timezone preferences in your user account.

Time Position Orientation Groundspeed Altitude Reporting Facility
EDT Latitude Longitude Course Direction KTS MPH feet Rate Location/Type
Fri 10:42:26 PM 66.4833 -145.4000 210° Southwest 120 138 4,500  Level Anchorage Center
Fri 10:43:26 PM 66.4500 -145.4500 211° Southwest 150 173 5,400 843 Climbing Anchorage Center
Fri 10:44:27 PM 66.4167 -145.5000 211° Southwest 110 127 6,200 843 Climbing Anchorage Center
Fri 10:45:27 PM 66.3833 -145.5500 211° Southwest 150 173 7,100 900 Climbing Anchorage Center
Fri 10:46:27 PM 66.3500 -145.6000 211° Southwest 150 173 8,000 450 Climbing Anchorage Center
Fri 10:47:00 PM 66.3422 -145.5804 210° Southwest  Level FlightAware Approximate
Fri 10:47:27 PM 66.3167 -145.6500 211° Southwest 160 184 8,000  Level Anchorage Center
Fri 10:48:27 PM 66.2833 -145.7167 219° Southwest 180 207 8,000  Level Anchorage Center
Fri 10:49:27 PM 66.2333 -145.7833 208° Southwest 170 196 8,000  Level Anchorage Center
Fri 10:50:27 PM 66.2000 -145.8500 219° Southwest 180 207 8,000  Level Anchorage Center
Fri 10:51:27 PM 66.1500 -145.9167 208° Southwest 170 196 8,000  Level Anchorage Center
Fri 10:52:27 PM 66.1167 -145.9833 219° Southwest 170 196 8,000  Level Anchorage Center
Fri 10:53:28 PM 66.0667 -146.0333 202° Southwest 170 196 8,000  Level Anchorage Center
Fri 10:54:28 PM 66.0333 -146.1000 219° Southwest 170 196 8,000  Level Anchorage Center
Fri 10:55:28 PM 65.9833 -146.1667 208° Southwest 180 207 8,000  Level Anchorage Center
Fri 10:56:28 PM 65.9500 -146.2333 219° Southwest 170 196 8,000  Level Anchorage Center
Fri 10:57:28 PM 65.9000 -146.2833 202° Southwest 170 196 8,000  Level Anchorage Center
Fri 10:58:28 PM 65.8667 -146.3500 219° Southwest 170 196 8,000  Level Anchorage Center
Fri 10:59:28 PM 65.8167 -146.4000 202° Southwest 170 196 8,000  Level Anchorage Center
Fri 11:00:29 PM 65.7833 -146.4667 219° Southwest 170 196 8,000  Level Anchorage Center
Fri 11:01:29 PM 65.7333 -146.5333 209° Southwest 170 196 8,000  Level Anchorage Center
Fri 11:02:28 PM 65.7000 -146.5833 212° Southwest 170 196 8,000  Level Anchorage Center
Fri 11:03:29 PM 65.6667 -146.6500 220° Southwest 170 196 8,000  Level Anchorage Center
Fri 11:04:29 PM 65.6167 -146.7000 202° Southwest 160 184 8,000  Level Anchorage Center
Fri 11:05:29 PM 65.5833 -146.7667 220° Southwest 170 196 8,000  Level Anchorage Center
Fri 11:06:29 PM 65.5333 -146.8167 203° Southwest 170 196 8,000  Level Anchorage Center
Fri 11:07:29 PM 65.5000 -146.8833 220° Southwest 170 196 8,000  Level Anchorage Center
Fri 11:08:29 PM 65.4500 -146.9333 203° Southwest 180 207 8,000  Level Anchorage Center
Fri 11:10:00 PM 65.3931 -147.0171 212° Southwest  Level FlightAware Approximate
Fri 11:17:00 PM 65.1334 -147.3969 209° Southwest  Level FlightAware Approximate
Fri 11:18:00 PM 65.0948 -147.4470 209° Southwest  Level FlightAware Approximate
Fri 11:19:00 PM 65.0564 -147.4977 211° Southwest  Level FlightAware Approximate
Fri 11:20:00 PM 65.0185 -147.5506 210° Southwest  Level FlightAware Approximate
Fri 11:21:00 PM 64.9805 -147.6033 210° Southwest  Level FlightAware Approximate
Fri 11:22:00 PM 64.9426 -147.6558 210° Southwest  Level FlightAware Approximate
Fri 11:23:00 PM 64.9046 -147.7083 210° Southwest  Level FlightAware Approximate
Fri 11:24:00 PM 64.8666 -147.7605 210° Southwest  Level FlightAware Approximate
Fri 11:25:00 PM 64.8285 -147.8121 210° Southwest  Level FlightAware Approximate
Fri 11:26:00 PM 64.8151 -147.8564 210° Southwest  Level Estimated
Fri 11:27:00 PM 64.8151 -147.8564 170° South  Level Estimated
Fri 11:28:00 PM 64.8151 -147.8564 210° Southwest  Level Estimated
Fri 11:29:00 PM 64.8151 -147.8564 170° South  Level Estimated
Fri 11:30:00 PM 64.8151 -147.8564 210° Southwest  Level Estimated
Fri 11:31:00 PM 64.8151 -147.8564 170° South  Level Estimated
Fri 11:32:00 PM 64.8151 -147.8564 210° Southwest  Level Estimated
Fri 11:33:00 PM 64.8151 -147.8564 170° South  Level Estimated
Fri 11:34:00 PM 64.8151 -147.8564 210° Southwest  Level Estimated
Fri 11:35:00 PM 64.8151 -147.8564 170° South  Level Estimated
Fri 11:36:00 PM 64.8151 -147.8564 210° Southwest  Level Estimated
Fri 11:37:00 PM 64.8151 -147.8564 170° South  Level Estimated
Fri 11:38:00 PM 64.8151 -147.8564 210° Southwest  Level Estimated
Fri 11:39:00 PM 64.8151 -147.8564 170° South  Level Estimated
Fri 11:40:00 PM 64.8151 -147.8564 210° Southwest  Level Estimated
Fri 11:41:00 PM 64.8151 -147.8564 170° South  Level Estimated
Fri 11:42:00 PM 64.8151 -147.8564 210° Southwest  Level Estimated
Fri 11:43:00 PM 64.8151 -147.8564 170° South  Level Estimated

Login

Don't have an account? Register now (free) for customized features, flight alerts, and more!